createdAt,value
2022-08-03T00:01:30.423Z,101218.13
2022-08-03T00:03:57.287Z,101226.38
2022-08-03T00:06:24.055Z,101222.56
2022-08-03T00:08:50.830Z,101224.63
2022-08-03T00:11:18.201Z,101222.22
2022-08-03T00:13:44.989Z,101217.75
2022-08-03T00:16:11.956Z,101231.66
2022-08-03T00:18:38.965Z,101227.38
2022-08-03T00:21:06.020Z,101230.13
2022-08-03T00:23:52.056Z,101232.84
2022-08-03T00:26:21.060Z,101227.38
2022-08-03T00:28:48.919Z,101236.28
2022-08-03T00:31:16.119Z,101218.94
2022-08-03T00:33:58.129Z,101223.03
2022-08-03T00:36:27.705Z,101224.88
2022-08-03T00:38:55.536Z,101214.91
2022-08-03T00:41:22.591Z,101217.31
2022-08-03T00:43:49.893Z,101214.19
2022-08-03T00:46:21.373Z,101216.56
2022-08-03T00:48:53.933Z,101214.13
2022-08-03T00:51:22.386Z,101209.16
2022-08-03T00:53:50.245Z,101215.81
2022-08-03T00:56:17.598Z,101204.09
2022-08-03T00:58:46.655Z,101208.06
2022-08-03T01:01:15.009Z,101200.28
2022-08-03T01:03:42.365Z,101200.66
2022-08-03T01:06:42.703Z,101191.72
2022-08-03T01:09:26.978Z,101197.53
2022-08-03T01:12:07.934Z,101185.16
2022-08-03T01:14:50.729Z,101195.09
2022-08-03T01:17:40.133Z,101192.66
2022-08-03T01:20:13.618Z,101196.75
2022-08-03T01:22:56.281Z,101190.91
2022-08-03T01:26:03.900Z,101195.69
2022-08-03T01:29:07.952Z,101186.06
2022-08-03T01:32:59.977Z,101189.13
2022-08-03T01:34:55.234Z,101191.16
2022-08-03T01:37:35.296Z,101186.88
2022-08-03T01:40:09.163Z,101195.97
2022-08-03T01:42:39.897Z,101192.22
2022-08-03T01:45:11.229Z,101186.88
2022-08-03T01:47:40.462Z,101185.31
2022-08-03T01:50:10.883Z,101176.53
2022-08-03T01:52:42.145Z,101184.41
2022-08-03T01:55:12.257Z,101180.09
2022-08-03T01:58:05.300Z,101188.16
2022-08-03T02:00:33.218Z,101181.81
2022-08-03T02:03:02.466Z,101180.09
2022-08-03T02:05:32.753Z,101178.38
2022-08-03T02:08:03.464Z,101181.59
2022-08-03T02:10:34.760Z,101176.09
2022-08-03T02:13:07.216Z,101172.13
2022-08-03T02:15:37.242Z,101178.81
2022-08-03T02:18:08.956Z,101176.22
2022-08-03T02:20:39.023Z,101172.94
2022-08-03T02:23:07.229Z,101176.88
2022-08-03T02:25:41.165Z,101180.59
2022-08-03T02:28:17.564Z,101178.88
2022-08-03T02:30:53.910Z,101174.75
2022-08-03T02:33:30.213Z,101177.75
2022-08-03T02:36:00.002Z,101169.16
2022-08-03T02:38:36.499Z,101168.09
2022-08-03T02:41:13.448Z,101161.19
2022-08-03T02:44:06.535Z,101150.84
2022-08-03T02:46:35.240Z,101154.63
2022-08-03T02:49:41.110Z,101162.13
2022-08-03T02:51:54.322Z,101164.16
2022-08-03T02:54:25.119Z,101155.56
2022-08-03T02:56:54.813Z,101163.78
2022-08-03T02:59:23.346Z,101162.91
2022-08-03T03:01:52.103Z,101163.06
2022-08-03T03:04:20.975Z,101161.34
2022-08-03T03:06:57.195Z,101155.88
2022-08-03T03:09:24.690Z,101155.88
2022-08-03T03:12:10.919Z,101158.91
2022-08-03T03:14:38.891Z,101160.25
2022-08-03T03:17:11.342Z,101159.56
2022-08-03T03:19:41.404Z,101158.84
2022-08-03T03:22:09.298Z,101161.03
2022-08-03T03:24:37.897Z,101164.06
2022-08-03T03:27:05.332Z,101164.38
2022-08-03T03:29:39.260Z,101162.13
2022-08-03T03:32:08.276Z,101161.56
2022-08-03T03:34:37.542Z,101164.44
2022-08-03T03:37:05.209Z,101155.84
2022-08-03T03:39:32.110Z,101153.25
2022-08-03T03:42:00.833Z,101156.16
2022-08-03T03:44:31.194Z,101154.03
2022-08-03T03:46:58.875Z,101157.94
2022-08-03T03:49:27.076Z,101163.72
2022-08-03T03:51:55.561Z,101157.66
2022-08-03T03:54:25.522Z,101150.47
2022-08-03T03:56:56.335Z,101153.34
2022-08-03T03:59:23.069Z,101151.63
2022-08-03T04:01:59.267Z,101151.06
2022-08-03T04:04:44.823Z,101159.59
2022-08-03T04:07:30.073Z,101151.69
2022-08-03T04:10:16.139Z,101151.69
2022-08-03T04:12:50.312Z,101153.72
2022-08-03T04:15:22.944Z,101151.97
2022-08-03T04:17:55.976Z,101152.25
2022-08-03T04:20:27.970Z,101152.25
2022-08-03T04:23:00.118Z,101159.47
2022-08-03T04:25:34.044Z,101162.34
2022-08-03T04:28:08.185Z,101161.22
2022-08-03T04:30:53.501Z,101161.91
2022-08-03T04:33:23.490Z,101161.53
2022-08-03T04:36:02.722Z,101157.22
2022-08-03T04:38:44.105Z,101160.31
2022-08-03T04:41:13.004Z,101164.53
2022-08-03T04:43:41.803Z,101160.72
2022-08-03T04:46:09.895Z,101165.00
2022-08-03T04:48:37.562Z,101166.09
2022-08-03T04:51:06.186Z,101170.69
2022-08-03T04:53:32.998Z,101172.03
2022-08-03T04:56:07.028Z,101175.81
2022-08-03T04:58:33.879Z,101172.38
2022-08-03T05:01:00.753Z,101177.41
2022-08-03T05:03:27.544Z,101173.00
2022-08-03T05:06:09.961Z,101172.91
2022-08-03T05:08:46.344Z,101177.63
2022-08-03T05:11:16.305Z,101173.06
2022-08-03T05:13:44.808Z,101182.59
2022-08-03T05:16:13.924Z,101186.34
2022-08-03T05:18:44.108Z,101180.88
2022-08-03T05:21:13.965Z,101187.19
2022-08-03T05:23:41.434Z,101188.78
2022-08-03T05:26:08.394Z,101202.16
2022-08-03T05:28:35.180Z,101192.63
2022-08-03T05:31:02.363Z,101198.81
2022-08-03T05:33:29.135Z,101197.78
2022-08-03T05:36:03.249Z,101204.69
2022-08-03T05:38:34.734Z,101204.06
2022-08-03T05:41:21.290Z,101208.22
2022-08-03T05:43:53.940Z,101210.34
2022-08-03T05:46:24.287Z,101202.19
2022-08-03T05:48:51.418Z,101206.19
2022-08-03T05:51:18.283Z,101202.28
2022-08-03T05:53:45.652Z,101209.25
2022-08-03T05:56:14.084Z,101214.13
2022-08-03T05:58:47.713Z,101216.94
2022-08-03T06:01:16.613Z,101211.69
2022-08-03T06:03:43.677Z,101201.28
2022-08-03T06:06:11.587Z,101213.00
2022-08-03T06:08:39.741Z,101205.16
2022-08-03T06:11:06.906Z,101204.19
2022-08-03T06:13:34.365Z,101212.50
2022-08-03T06:16:01.084Z,101205.00
2022-08-03T06:18:28.023Z,101211.09
2022-08-03T06:20:55.211Z,101205.72
2022-08-03T06:23:24.547Z,101213.00
2022-08-03T06:26:09.484Z,101217.69
2022-08-03T06:28:52.406Z,101219.09
2022-08-03T06:31:32.262Z,101207.41
2022-08-03T06:34:32.575Z,101213.66
2022-08-03T06:36:50.960Z,101214.38
2022-08-03T06:39:19.905Z,101214.22
2022-08-03T06:41:46.643Z,101221.59
2022-08-03T06:44:13.785Z,101224.06
2022-08-03T06:46:40.991Z,101224.78
2022-08-03T06:49:08.119Z,101227.19
2022-08-03T06:52:04.147Z,101229.06
2022-08-03T06:54:22.399Z,101223.41
2022-08-03T06:56:49.137Z,101230.47
2022-08-03T07:00:08.022Z,101225.47
2022-08-03T07:02:03.142Z,101221.34
2022-08-03T07:04:29.969Z,101223.03
2022-08-03T07:06:56.999Z,101229.25
2022-08-03T07:09:23.816Z,101226.16
2022-08-03T07:11:50.662Z,101222.66
2022-08-03T07:14:17.541Z,101217.63
2022-08-03T07:16:44.349Z,101229.72
2022-08-03T07:19:11.141Z,101224.38
2022-08-03T07:21:38.318Z,101239.97
2022-08-03T07:24:05.856Z,101244.53
2022-08-03T07:26:32.722Z,101238.88
2022-08-03T07:29:01.464Z,101239.28
2022-08-03T07:31:28.257Z,101243.84
2022-08-03T07:34:01.402Z,101247.56
2022-08-03T07:36:28.390Z,101255.28
2022-08-03T07:38:55.133Z,101247.97
2022-08-03T07:41:22.289Z,101252.66
2022-08-03T07:43:49.085Z,101246.97
2022-08-03T07:46:16.033Z,101241.78
2022-08-03T07:48:42.813Z,101234.34
2022-08-03T07:51:09.605Z,101243.13
2022-08-03T07:53:37.890Z,101237.31
2022-08-03T07:56:14.480Z,101240.66
2022-08-03T07:58:41.229Z,101234.31
2022-08-03T08:01:08.067Z,101235.25
2022-08-03T08:03:41.106Z,101233.47
2022-08-03T08:06:20.473Z,101233.72
2022-08-03T08:08:47.683Z,101238.00
2022-08-03T08:11:15.032Z,101239.47
2022-08-03T08:13:41.855Z,101239.75
2022-08-03T08:16:08.671Z,101232.94
2022-08-03T08:18:35.456Z,101229.94
2022-08-03T08:21:03.432Z,101231.19
2022-08-03T08:23:43.840Z,101239.25
2022-08-03T08:26:12.101Z,101237.31
2022-08-03T08:28:39.196Z,101232.31
2022-08-03T08:31:06.401Z,101238.44
2022-08-03T08:34:02.654Z,101246.88
2022-08-03T08:36:21.672Z,101239.25
2022-08-03T08:38:48.604Z,101241.09
2022-08-03T08:41:17.109Z,101240.44
2022-08-03T08:43:44.015Z,101231.47
2022-08-03T08:46:23.833Z,101238.75
2022-08-03T08:48:53.725Z,101231.16
2022-08-03T08:51:22.661Z,101232.31
2022-08-03T08:53:54.318Z,101232.56
2022-08-03T08:56:25.431Z,101236.00
2022-08-03T08:58:57.993Z,101231.28
2022-08-03T09:01:25.226Z,101227.22
2022-08-03T09:03:54.132Z,101239.75
2022-08-03T09:06:22.781Z,101229.50
2022-08-03T09:08:49.868Z,101228.69
2022-08-03T09:11:21.342Z,101229.22
2022-08-03T09:14:39.468Z,101225.88
2022-08-03T09:17:02.539Z,101231.59
2022-08-03T09:19:32.917Z,101231.72
2022-08-03T09:22:18.602Z,101222.84
2022-08-03T09:27:46.007Z,101224.94
2022-08-03T09:30:33.348Z,101230.03
2022-08-03T09:33:08.383Z,101224.53
2022-08-03T09:35:54.163Z,101228.22
2022-08-03T09:38:26.478Z,101217.31
2022-08-03T09:40:58.997Z,101221.81
2022-08-03T09:43:27.608Z,101221.59
2022-08-03T09:46:04.607Z,101226.31
2022-08-03T09:48:36.792Z,101229.34
2022-08-03T09:51:13.498Z,101229.78
2022-08-03T09:53:58.992Z,101231.09
2022-08-03T09:56:46.029Z,101232.00
2022-08-03T09:59:24.101Z,101232.47
2022-08-03T10:01:53.485Z,101227.81
2022-08-03T10:04:21.033Z,101225.28
2022-08-03T10:07:06.484Z,101228.69
2022-08-03T10:09:33.431Z,101230.34
2022-08-03T10:12:12.562Z,101229.06
2022-08-03T10:14:43.919Z,101228.03
2022-08-03T10:17:10.709Z,101227.59
2022-08-03T10:19:38.106Z,101229.53
2022-08-03T10:22:13.446Z,101219.44
2022-08-03T10:24:54.205Z,101229.09
2022-08-03T10:27:24.436Z,101219.66
2022-08-03T10:30:00.027Z,101220.69
2022-08-03T10:32:42.006Z,101223.47
2022-08-03T10:35:21.977Z,101214.94
2022-08-03T10:38:00.044Z,101217.03
2022-08-03T10:40:48.060Z,101211.25
2022-08-03T10:43:22.947Z,101205.47
2022-08-03T10:45:51.142Z,101205.88
2022-08-03T10:48:20.705Z,101205.47
2022-08-03T10:50:50.616Z,101199.44
2022-08-03T10:53:35.889Z,101204.09
2022-08-03T10:56:48.114Z,101197.91
2022-08-03T10:59:09.825Z,101192.50
2022-08-03T11:01:59.867Z,101191.84
2022-08-03T11:04:29.730Z,101189.84
2022-08-03T11:07:18.599Z,101186.78
2022-08-03T11:09:50.725Z,101195.88
2022-08-03T11:12:33.818Z,101189.53
2022-08-03T11:15:08.624Z,101188.06
2022-08-03T11:17:46.270Z,101186.13
2022-08-03T11:20:59.299Z,101181.75
2022-08-03T11:24:04.362Z,101174.81
2022-08-03T11:26:34.171Z,101186.91
2022-08-03T11:29:30.742Z,101183.56
2022-08-03T11:31:58.092Z,101179.53
2022-08-03T11:34:25.830Z,101184.03
2022-08-03T11:37:24.053Z,101183.84
2022-08-03T11:39:54.791Z,101178.28
2022-08-03T11:42:24.871Z,101173.81
2022-08-03T11:44:55.321Z,101179.97
2022-08-03T11:47:26.913Z,101186.41
2022-08-03T11:50:02.185Z,101184.00
2022-08-03T11:52:36.630Z,101188.66
2022-08-03T11:55:10.624Z,101187.69
2022-08-03T11:59:10.994Z,101196.22
2022-08-03T12:00:31.515Z,101187.84
2022-08-03T12:03:02.610Z,101182.97
2022-08-03T12:05:40.758Z,101191.41
2022-08-03T12:08:11.716Z,101191.16
2022-08-03T12:10:40.698Z,101197.34
2022-08-03T12:14:36.755Z,101188.41
2022-08-03T12:16:01.468Z,101190.72
2022-08-03T12:18:28.310Z,101192.50
2022-08-03T12:21:08.750Z,101197.28
2022-08-03T12:23:38.041Z,101199.88
2022-08-03T12:26:10.084Z,101191.19
2022-08-03T12:28:38.504Z,101183.56
2022-08-03T12:31:09.601Z,101185.66
2022-08-03T12:34:03.673Z,101192.63
2022-08-03T12:36:34.066Z,101191.44
2022-08-03T12:39:07.537Z,101180.66
2022-08-03T12:41:37.889Z,101190.78
2022-08-03T12:44:07.113Z,101189.81
2022-08-03T12:46:47.061Z,101189.44
2022-08-03T12:49:18.734Z,101183.84
2022-08-03T12:51:45.542Z,101180.56
2022-08-03T12:54:24.842Z,101188.78
2022-08-03T12:57:06.258Z,101187.00
2022-08-03T12:59:52.914Z,101178.41
2022-08-03T13:02:27.738Z,101180.63
2022-08-03T13:04:55.908Z,101177.91
2022-08-03T13:07:23.458Z,101178.59
2022-08-03T13:09:55.391Z,101179.88
2022-08-03T13:12:28.872Z,101170.69
2022-08-03T13:15:00.588Z,101179.88
2022-08-03T13:17:28.319Z,101163.47
2022-08-03T13:19:56.332Z,101171.88
2022-08-03T13:22:29.016Z,101177.56
2022-08-03T13:24:57.742Z,101173.16
2022-08-03T13:28:04.291Z,101177.97
2022-08-03T13:30:17.908Z,101156.69
2022-08-03T13:32:58.476Z,101159.41
2022-08-03T13:35:25.756Z,101165.91
2022-08-03T13:37:52.554Z,101167.97
2022-08-03T13:40:19.482Z,101165.59
2022-08-03T13:42:50.653Z,101160.56
2022-08-03T13:45:17.624Z,101164.69
2022-08-03T13:47:44.426Z,101171.38
2022-08-03T13:50:11.246Z,101167.25
2022-08-03T13:52:38.300Z,101162.91
2022-08-03T13:55:08.156Z,101168.03
2022-08-03T13:58:03.731Z,101161.34
2022-08-03T14:00:28.978Z,101158.53
2022-08-03T14:03:12.875Z,101165.78
2022-08-03T14:05:41.201Z,101153.53
2022-08-03T14:08:08.115Z,101153.94
2022-08-03T14:10:38.296Z,101153.78
2022-08-03T14:13:05.966Z,101145.59
2022-08-03T14:15:37.314Z,101142.97
2022-08-03T14:18:05.211Z,101148.13
2022-08-03T14:20:37.972Z,101151.97
2022-08-03T14:23:15.381Z,101142.06
2022-08-03T14:25:44.509Z,101134.09
2022-08-03T14:28:25.166Z,101136.41
2022-08-03T14:30:54.111Z,101130.81
2022-08-03T14:33:21.233Z,101126.78
2022-08-03T14:35:49.276Z,101127.13
2022-08-03T14:38:17.221Z,101126.69
2022-08-03T14:40:44.681Z,101124.69
2022-08-03T14:43:11.567Z,101124.66
2022-08-03T14:45:39.753Z,101121.53
2022-08-03T14:50:31.790Z,101117.50
2022-08-03T14:50:55.163Z,101109.22
2022-08-03T14:53:22.898Z,101104.41
2022-08-03T14:55:51.896Z,101107.28
2022-08-03T14:58:25.184Z,101105.06
2022-08-03T15:00:54.086Z,101105.06
2022-08-03T15:03:24.728Z,101094.44
2022-08-03T15:05:54.422Z,101099.59
2022-08-03T15:08:23.089Z,101097.38
2022-08-03T15:10:50.669Z,101097.81
2022-08-03T15:13:19.505Z,101092.47
2022-08-03T15:15:47.870Z,101090.13
2022-08-03T15:18:15.466Z,101082.28
2022-08-03T15:20:45.401Z,101082.09
2022-08-03T15:23:15.405Z,101089.22
2022-08-03T15:26:28.085Z,101086.41
2022-08-03T15:28:34.120Z,101088.16
2022-08-03T15:31:04.650Z,101083.91
2022-08-03T15:33:31.521Z,101088.13
2022-08-03T15:35:59.942Z,101083.63
2022-08-03T15:38:26.821Z,101083.03
2022-08-03T15:40:55.119Z,101077.97
2022-08-03T15:43:25.139Z,101079.69
2022-08-03T15:46:26.340Z,101077.41
2022-08-03T15:48:39.410Z,101078.53
2022-08-03T15:51:07.542Z,101074.59
2022-08-03T15:53:35.245Z,101065.88
2022-08-03T15:56:09.722Z,101063.34
2022-08-03T15:59:09.545Z,101066.13
2022-08-03T16:01:26.602Z,101062.19
2022-08-03T16:03:53.572Z,101061.06
2022-08-03T16:06:29.773Z,101061.66
2022-08-03T16:09:23.508Z,101057.97
2022-08-03T16:11:54.830Z,101050.31
2022-08-03T16:14:34.442Z,101049.72
2022-08-03T16:17:05.244Z,101051.88
2022-08-03T16:19:32.359Z,101055.78
2022-08-03T16:22:00.258Z,101050.69
2022-08-03T16:24:28.291Z,101052.56
2022-08-03T16:26:56.591Z,101040.69
2022-08-03T16:29:24.016Z,101049.59
2022-08-03T16:31:52.445Z,101041.75
2022-08-03T16:34:20.377Z,101039.22
2022-08-03T16:36:47.190Z,101042.34
2022-08-03T16:39:14.023Z,101045.03
2022-08-03T16:42:00.346Z,101035.00
2022-08-03T16:44:32.181Z,101034.16
2022-08-03T16:46:59.651Z,101043.16
2022-08-03T16:49:54.129Z,101044.81
2022-08-03T16:52:13.655Z,101033.66
2022-08-03T16:54:44.018Z,101037.22
2022-08-03T16:57:29.766Z,101028.16
2022-08-03T17:00:05.977Z,101031.31
2022-08-03T17:02:32.929Z,101030.84
2022-08-03T17:04:59.903Z,101022.31
2022-08-03T17:07:29.625Z,101022.44
2022-08-03T17:09:57.908Z,101026.13
2022-08-03T17:12:26.769Z,101032.56
2022-08-03T17:14:54.681Z,101027.31
2022-08-03T17:17:37.728Z,101026.66
2022-08-03T17:20:19.041Z,101022.53
2022-08-03T17:22:56.218Z,101026.84
2022-08-03T17:25:51.350Z,101025.53
2022-08-03T17:28:48.990Z,101026.53
2022-08-03T17:31:31.796Z,101025.34
2022-08-03T17:34:01.287Z,101022.44
2022-08-03T17:39:21.126Z,101021.00
2022-08-03T17:42:03.719Z,101023.72
2022-08-03T17:44:42.829Z,101015.69
2022-08-03T17:47:13.062Z,101015.81
2022-08-03T17:49:46.139Z,101020.69
2022-08-03T17:52:41.202Z,101019.75
2022-08-03T17:55:55.978Z,101027.41
2022-08-03T17:58:34.768Z,101014.19
2022-08-03T18:02:03.467Z,101025.47
2022-08-03T18:04:13.611Z,101018.31
2022-08-03T18:06:56.511Z,101017.94
2022-08-03T18:10:04.571Z,101021.13
2022-08-03T18:12:27.146Z,101015.91
2022-08-03T18:15:01.609Z,101014.94
2022-08-03T18:17:55.479Z,101018.69
2022-08-03T18:20:34.401Z,101019.28
2022-08-03T18:23:04.454Z,101028.31
2022-08-03T18:25:45.451Z,101028.09
2022-08-03T18:28:19.372Z,101027.34
2022-08-03T18:30:53.647Z,101026.59
2022-08-03T18:34:17.896Z,101030.34
2022-08-03T18:36:22.081Z,101019.06
2022-08-03T18:39:01.606Z,101030.75
2022-08-03T18:41:35.033Z,101018.47
2022-08-03T18:44:06.749Z,101024.97
2022-08-03T18:47:07.290Z,101018.63
2022-08-03T18:49:55.637Z,101023.06
2022-08-03T18:52:31.603Z,101014.66
2022-08-03T18:55:21.566Z,101021.84
2022-08-03T18:58:15.824Z,101022.22
2022-08-03T19:01:58.643Z,101022.84
2022-08-03T19:04:11.504Z,101020.50
2022-08-03T19:06:47.021Z,101026.56
2022-08-03T19:09:45.830Z,101030.09
2022-08-03T19:12:39.766Z,101048.84
2022-08-03T19:15:13.451Z,101036.09
2022-08-03T19:17:52.824Z,101038.56
2022-08-03T19:20:30.785Z,101040.09
2022-08-03T19:22:59.689Z,101038.25
2022-08-03T19:25:34.317Z,101043.44
2022-08-03T19:28:06.360Z,101039.22
2022-08-03T19:30:40.163Z,101040.53
2022-08-03T19:33:14.613Z,101040.81
2022-08-03T19:35:51.125Z,101042.75
2022-08-03T19:38:28.285Z,101044.91
2022-08-03T19:41:03.936Z,101050.25
2022-08-03T19:43:52.692Z,101049.22
2022-08-03T19:46:30.451Z,101049.00
2022-08-03T19:49:10.411Z,101046.03
2022-08-03T19:52:01.337Z,101033.91
2022-08-03T19:57:35.819Z,101032.25
2022-08-03T20:00:09.202Z,101040.31
2022-08-03T20:02:36.913Z,101042.69
2022-08-03T20:05:04.104Z,101046.34
2022-08-03T20:07:34.597Z,101048.06
2022-08-03T20:10:05.928Z,101051.88
2022-08-03T20:12:39.084Z,101039.28
2022-08-03T20:15:09.076Z,101041.25
2022-08-03T20:17:54.971Z,101039.09
2022-08-03T20:20:39.922Z,101051.06
2022-08-03T20:23:19.269Z,101040.78
2022-08-03T20:25:58.490Z,101043.31
2022-08-03T20:28:31.862Z,101040.34
2022-08-03T20:30:59.772Z,101041.16
2022-08-03T20:33:27.845Z,101039.88
2022-08-03T20:36:15.763Z,101046.72
2022-08-03T20:38:47.060Z,101047.97
2022-08-03T20:41:17.021Z,101046.28
2022-08-03T20:43:44.568Z,101043.28
2022-08-03T20:46:36.007Z,101044.78
2022-08-03T20:49:03.937Z,101043.91
2022-08-03T20:51:49.009Z,101036.41
2022-08-03T20:54:28.895Z,101046.63
2022-08-03T20:56:59.215Z,101040.66
2022-08-03T20:59:38.447Z,101042.13
2022-08-03T21:02:19.621Z,101038.06
2022-08-03T21:05:03.693Z,101041.06
2022-08-03T21:08:04.908Z,101045.28
2022-08-03T21:10:38.581Z,101042.25
2022-08-03T21:13:09.655Z,101038.63
2022-08-03T21:13:19.104Z,101038.22
2022-08-03T21:16:12.454Z,101037.97
2022-08-03T21:18:52.451Z,101031.16
2022-08-03T21:21:23.194Z,101024.97
2022-08-03T21:23:54.978Z,101024.31
2022-08-03T21:26:25.841Z,101017.47
2022-08-03T21:28:56.842Z,101014.47
2022-08-03T21:31:26.546Z,101018.91
2022-08-03T21:34:01.500Z,101017.81
2022-08-03T21:36:32.859Z,101019.28
2022-08-03T21:39:01.043Z,101010.75
2022-08-03T21:41:32.624Z,101007.75
2022-08-03T21:44:00.515Z,101007.88
2022-08-03T21:46:36.282Z,101002.72
2022-08-03T21:50:02.676Z,101004.22
2022-08-03T21:52:00.661Z,100996.75
2022-08-03T21:54:41.531Z,100999.91
2022-08-03T21:57:26.080Z,100994.31
2022-08-03T22:00:05.585Z,100994.94
2022-08-03T22:02:44.878Z,101001.50
2022-08-03T22:05:20.145Z,100997.06
2022-08-03T22:07:58.395Z,100998.28
2022-08-03T22:10:28.096Z,100991.91
2022-08-03T22:12:57.996Z,101000.41
2022-08-03T22:15:25.264Z,100990.63
2022-08-03T22:17:55.353Z,100985.47
2022-08-03T22:20:24.896Z,100988.63
2022-08-03T22:22:59.899Z,100993.94
2022-08-03T22:25:38.468Z,100995.38
2022-08-03T22:28:10.517Z,100993.03
2022-08-03T22:30:40.207Z,100985.78
2022-08-03T22:33:11.276Z,100991.72
2022-08-03T22:35:47.528Z,100993.81
2022-08-03T22:38:17.183Z,100986.97
2022-08-03T22:40:47.001Z,100989.94
2022-08-03T22:43:14.045Z,100987.34
2022-08-03T22:46:08.931Z,100987.75
2022-08-03T22:48:41.288Z,100987.31
2022-08-03T22:51:09.532Z,100975.78
2022-08-03T22:53:38.309Z,100987.25
2022-08-03T22:56:06.356Z,100982.97
2022-08-03T22:58:33.127Z,100984.22
2022-08-03T23:01:08.226Z,100982.72
2022-08-03T23:04:00.955Z,100973.97
2022-08-03T23:06:30.372Z,100978.19
2022-08-03T23:08:57.561Z,100974.78
2022-08-03T23:11:26.677Z,100983.25
2022-08-03T23:13:59.136Z,100979.84
2022-08-03T23:16:28.832Z,100968.31
2022-08-03T23:18:57.773Z,100970.44
2022-08-03T23:21:53.180Z,100974.63
2022-08-03T23:24:25.962Z,100974.16
2022-08-03T23:26:58.300Z,100981.78
2022-08-03T23:29:26.595Z,100977.72
2022-08-03T23:31:54.639Z,100977.25
2022-08-03T23:34:42.210Z,100978.69
2022-08-03T23:37:12.948Z,100975.66
2022-08-03T23:39:40.697Z,100975.00
2022-08-03T23:42:08.877Z,100968.34
2022-08-03T23:44:40.052Z,100967.88
2022-08-03T23:47:06.814Z,100964.81
2022-08-03T23:49:33.692Z,100963.50
2022-08-03T23:52:15.432Z,100963.88
2022-08-03T23:55:02.930Z,100962.56
2022-08-03T23:57:44.085Z,100963.84
